sensor_id;sensor_type;location;lat;lon;timestamp;P1;durP1;ratioP1;P2;durP2;ratioP2
69912;SDS011;57198;52.082;5.108;2023-01-29T00:01:47;18.42;;;13.20;;
69912;SDS011;57198;52.082;5.108;2023-01-29T00:04:14;21.40;;;14.80;;
69912;SDS011;57198;52.082;5.108;2023-01-29T00:06:42;19.90;;;13.77;;
69912;SDS011;57198;52.082;5.108;2023-01-29T00:09:10;20.35;;;14.20;;
69912;SDS011;57198;52.082;5.108;2023-01-29T00:11:38;21.08;;;15.55;;
69912;SDS011;57198;52.082;5.108;2023-01-29T00:14:05;20.33;;;14.00;;
69912;SDS011;57198;52.082;5.108;2023-01-29T00:16:33;18.45;;;12.95;;
69912;SDS011;57198;52.082;5.108;2023-01-29T00:19:00;18.97;;;13.10;;
69912;SDS011;57198;52.082;5.108;2023-01-29T00:21:28;16.92;;;12.15;;
69912;SDS011;57198;52.082;5.108;2023-01-29T00:23:56;20.95;;;13.88;;
69912;SDS011;57198;52.082;5.108;2023-01-29T00:26:24;20.60;;;14.52;;
69912;SDS011;57198;52.082;5.108;2023-01-29T00:28:51;20.08;;;13.02;;
69912;SDS011;57198;52.082;5.108;2023-01-29T00:31:19;21.23;;;14.43;;
69912;SDS011;57198;52.082;5.108;2023-01-29T00:33:48;19.55;;;12.75;;
69912;SDS011;57198;52.082;5.108;2023-01-29T00:36:16;22.13;;;13.82;;
69912;SDS011;57198;52.082;5.108;2023-01-29T00:38:44;18.67;;;13.20;;
69912;SDS011;57198;52.082;5.108;2023-01-29T00:41:21;20.90;;;14.27;;
69912;SDS011;57198;52.082;5.108;2023-01-29T00:44:07;20.87;;;13.23;;
69912;SDS011;57198;52.082;5.108;2023-01-29T00:46:53;22.00;;;12.70;;
69912;SDS011;57198;52.082;5.108;2023-01-29T00:49:20;20.08;;;14.38;;
69912;SDS011;57198;52.082;5.108;2023-01-29T00:51:48;19.30;;;13.07;;
69912;SDS011;57198;52.082;5.108;2023-01-29T00:54:48;19.90;;;13.27;;
69912;SDS011;57198;52.082;5.108;2023-01-29T00:57:15;19.67;;;14.20;;
69912;SDS011;57198;52.082;5.108;2023-01-29T00:59:43;21.42;;;13.95;;
69912;SDS011;57198;52.082;5.108;2023-01-29T01:02:10;21.50;;;13.95;;
69912;SDS011;57198;52.082;5.108;2023-01-29T01:04:56;18.92;;;12.57;;
69912;SDS011;57198;52.082;5.108;2023-01-29T01:07:23;18.30;;;12.90;;
69912;SDS011;57198;52.082;5.108;2023-01-29T01:09:51;20.03;;;13.57;;
69912;SDS011;57198;52.082;5.108;2023-01-29T01:12:37;21.27;;;14.30;;
69912;SDS011;57198;52.082;5.108;2023-01-29T01:15:04;20.38;;;13.95;;
69912;SDS011;57198;52.082;5.108;2023-01-29T01:17:32;17.25;;;13.20;;
69912;SDS011;57198;52.082;5.108;2023-01-29T01:20:00;20.95;;;13.25;;
69912;SDS011;57198;52.082;5.108;2023-01-29T01:22:27;18.47;;;12.57;;
69912;SDS011;57198;52.082;5.108;2023-01-29T01:24:55;21.20;;;12.60;;
69912;SDS011;57198;52.082;5.108;2023-01-29T01:27:22;17.83;;;12.52;;
69912;SDS011;57198;52.082;5.108;2023-01-29T01:29:50;16.83;;;11.80;;
69912;SDS011;57198;52.082;5.108;2023-01-29T01:32:18;16.70;;;12.10;;
69912;SDS011;57198;52.082;5.108;2023-01-29T01:34:46;14.90;;;10.97;;
69912;SDS011;57198;52.082;5.108;2023-01-29T01:37:13;18.05;;;12.18;;
69912;SDS011;57198;52.082;5.108;2023-01-29T01:39:41;17.00;;;12.82;;
69912;SDS011;57198;52.082;5.108;2023-01-29T01:42:11;18.38;;;12.27;;
69912;SDS011;57198;52.082;5.108;2023-01-29T01:44:53;16.88;;;11.85;;
69912;SDS011;57198;52.082;5.108;2023-01-29T01:47:26;17.40;;;12.60;;
69912;SDS011;57198;52.082;5.108;2023-01-29T01:49:54;17.25;;;12.73;;
69912;SDS011;57198;52.082;5.108;2023-01-29T01:52:23;18.55;;;12.15;;
69912;SDS011;57198;52.082;5.108;2023-01-29T01:54:50;16.85;;;12.27;;
69912;SDS011;57198;52.082;5.108;2023-01-29T01:57:19;19.58;;;12.65;;
69912;SDS011;57198;52.082;5.108;2023-01-29T01:59:52;20.37;;;12.57;;
69912;SDS011;57198;52.082;5.108;2023-01-29T02:02:23;16.92;;;11.65;;
69912;SDS011;57198;52.082;5.108;2023-01-29T02:05:09;19.45;;;12.48;;
69912;SDS011;57198;52.082;5.108;2023-01-29T02:07:56;17.15;;;12.30;;
69912;SDS011;57198;52.082;5.108;2023-01-29T02:10:46;19.67;;;11.95;;
69912;SDS011;57198;52.082;5.108;2023-01-29T02:13:14;21.57;;;13.20;;
69912;SDS011;57198;52.082;5.108;2023-01-29T02:15:44;17.98;;;12.60;;
69912;SDS011;57198;52.082;5.108;2023-01-29T02:18:14;18.60;;;13.43;;
69912;SDS011;57198;52.082;5.108;2023-01-29T02:20:46;18.52;;;12.98;;
69912;SDS011;57198;52.082;5.108;2023-01-29T02:31:51;19.05;;;13.57;;
69912;SDS011;57198;52.082;5.108;2023-01-29T02:34:25;20.52;;;13.23;;
69912;SDS011;57198;52.082;5.108;2023-01-29T02:36:59;21.13;;;13.30;;
69912;SDS011;57198;52.082;5.108;2023-01-29T02:42:09;21.92;;;13.80;;
69912;SDS011;57198;52.082;5.108;2023-01-29T02:44:42;21.95;;;13.60;;
69912;SDS011;57198;52.082;5.108;2023-01-29T02:52:22;22.33;;;14.93;;
69912;SDS011;57198;52.082;5.108;2023-01-29T02:57:31;21.13;;;13.85;;
69912;SDS011;57198;52.082;5.108;2023-01-29T03:02:37;22.63;;;15.38;;
69912;SDS011;57198;52.082;5.108;2023-01-29T03:05:08;21.30;;;14.30;;
69912;SDS011;57198;52.082;5.108;2023-01-29T03:07:40;20.52;;;14.13;;
69912;SDS011;57198;52.082;5.108;2023-01-29T03:10:23;24.35;;;15.80;;
69912;SDS011;57198;52.082;5.108;2023-01-29T03:12:54;23.35;;;16.27;;
69912;SDS011;57198;52.082;5.108;2023-01-29T03:15:23;22.25;;;15.32;;
69912;SDS011;57198;52.082;5.108;2023-01-29T03:18:22;23.10;;;15.47;;
69912;SDS011;57198;52.082;5.108;2023-01-29T03:21:02;23.15;;;15.30;;
69912;SDS011;57198;52.082;5.108;2023-01-29T03:23:51;22.88;;;14.38;;
69912;SDS011;57198;52.082;5.108;2023-01-29T03:26:39;22.48;;;15.25;;
69912;SDS011;57198;52.082;5.108;2023-01-29T03:29:33;22.58;;;16.30;;
69912;SDS011;57198;52.082;5.108;2023-01-29T03:32:23;22.17;;;14.93;;
69912;SDS011;57198;52.082;5.108;2023-01-29T03:35:00;22.05;;;15.45;;
69912;SDS011;57198;52.082;5.108;2023-01-29T03:39:58;23.88;;;15.40;;
69912;SDS011;57198;52.082;5.108;2023-01-29T03:42:27;26.02;;;17.27;;
69912;SDS011;57198;52.082;5.108;2023-01-29T03:45:07;26.30;;;17.37;;
69912;SDS011;57198;52.082;5.108;2023-01-29T03:47:47;23.30;;;15.50;;
69912;SDS011;57198;52.082;5.108;2023-01-29T03:53:09;24.30;;;15.98;;
69912;SDS011;57198;52.082;5.108;2023-01-29T03:58:34;22.77;;;15.30;;
69912;SDS011;57198;52.082;5.108;2023-01-29T04:01:26;25.63;;;16.27;;
69912;SDS011;57198;52.082;5.108;2023-01-29T04:03:52;25.23;;;15.80;;
69912;SDS011;57198;52.082;5.108;2023-01-29T04:06:28;25.13;;;16.23;;
69912;SDS011;57198;52.082;5.108;2023-01-29T04:09:05;25.30;;;16.40;;
69912;SDS011;57198;52.082;5.108;2023-01-29T04:11:37;25.73;;;16.03;;
69912;SDS011;57198;52.082;5.108;2023-01-29T04:14:06;23.83;;;15.40;;
69912;SDS011;57198;52.082;5.108;2023-01-29T04:16:40;24.55;;;16.20;;
69912;SDS011;57198;52.082;5.108;2023-01-29T04:19:18;24.08;;;15.52;;
69912;SDS011;57198;52.082;5.108;2023-01-29T04:21:48;25.55;;;17.38;;
69912;SDS011;57198;52.082;5.108;2023-01-29T04:24:17;25.70;;;14.93;;
69912;SDS011;57198;52.082;5.108;2023-01-29T04:34:28;26.77;;;17.70;;
69912;SDS011;57198;52.082;5.108;2023-01-29T04:39:43;24.45;;;15.73;;
69912;SDS011;57198;52.082;5.108;2023-01-29T04:42:12;26.40;;;17.90;;
69912;SDS011;57198;52.082;5.108;2023-01-29T04:44:50;27.33;;;16.60;;
69912;SDS011;57198;52.082;5.108;2023-01-29T04:47:27;28.33;;;16.95;;
69912;SDS011;57198;52.082;5.108;2023-01-29T04:52:47;24.80;;;15.88;;
69912;SDS011;57198;52.082;5.108;2023-01-29T04:55:20;23.55;;;16.42;;
69912;SDS011;57198;52.082;5.108;2023-01-29T05:00:25;28.08;;;17.80;;
69912;SDS011;57198;52.082;5.108;2023-01-29T05:02:54;23.70;;;15.10;;
69912;SDS011;57198;52.082;5.108;2023-01-29T05:05:22;26.73;;;16.08;;
69912;SDS011;57198;52.082;5.108;2023-01-29T05:07:50;26.90;;;17.77;;
69912;SDS011;57198;52.082;5.108;2023-01-29T05:10:17;24.45;;;15.90;;
69912;SDS011;57198;52.082;5.108;2023-01-29T05:12:46;24.08;;;16.20;;
69912;SDS011;57198;52.082;5.108;2023-01-29T05:15:18;22.77;;;15.03;;
69912;SDS011;57198;52.082;5.108;2023-01-29T05:17:46;25.60;;;16.85;;
69912;SDS011;57198;52.082;5.108;2023-01-29T05:20:13;27.75;;;16.95;;
69912;SDS011;57198;52.082;5.108;2023-01-29T05:22:41;27.30;;;17.20;;
69912;SDS011;57198;52.082;5.108;2023-01-29T05:25:51;24.58;;;15.32;;
69912;SDS011;57198;52.082;5.108;2023-01-29T05:27:59;24.13;;;15.23;;
69912;SDS011;57198;52.082;5.108;2023-01-29T05:30:33;24.65;;;17.13;;
69912;SDS011;57198;52.082;5.108;2023-01-29T05:33:01;25.95;;;16.00;;
69912;SDS011;57198;52.082;5.108;2023-01-29T05:35:28;24.20;;;15.38;;
69912;SDS011;57198;52.082;5.108;2023-01-29T05:37:56;24.80;;;17.40;;
69912;SDS011;57198;52.082;5.108;2023-01-29T05:40:23;30.40;;;16.93;;
69912;SDS011;57198;52.082;5.108;2023-01-29T05:42:50;24.27;;;16.40;;
69912;SDS011;57198;52.082;5.108;2023-01-29T05:45:18;25.15;;;18.17;;
69912;SDS011;57198;52.082;5.108;2023-01-29T05:47:45;26.80;;;16.45;;
69912;SDS011;57198;52.082;5.108;2023-01-29T05:50:13;24.75;;;16.83;;
69912;SDS011;57198;52.082;5.108;2023-01-29T05:52:41;23.80;;;15.93;;
69912;SDS011;57198;52.082;5.108;2023-01-29T05:55:08;25.75;;;17.30;;
69912;SDS011;57198;52.082;5.108;2023-01-29T05:57:36;28.08;;;17.58;;
69912;SDS011;57198;52.082;5.108;2023-01-29T06:00:03;24.30;;;16.10;;
69912;SDS011;57198;52.082;5.108;2023-01-29T06:02:37;23.15;;;16.52;;
69912;SDS011;57198;52.082;5.108;2023-01-29T06:05:05;24.87;;;16.93;;
69912;SDS011;57198;52.082;5.108;2023-01-29T06:07:32;24.25;;;17.13;;
69912;SDS011;57198;52.082;5.108;2023-01-29T06:09:59;27.85;;;16.42;;
69912;SDS011;57198;52.082;5.108;2023-01-29T06:12:26;27.27;;;17.77;;
69912;SDS011;57198;52.082;5.108;2023-01-29T06:14:54;24.13;;;16.67;;
69912;SDS011;57198;52.082;5.108;2023-01-29T06:17:21;24.87;;;15.37;;
69912;SDS011;57198;52.082;5.108;2023-01-29T06:19:49;23.02;;;16.30;;
69912;SDS011;57198;52.082;5.108;2023-01-29T06:22:17;26.67;;;17.42;;
69912;SDS011;57198;52.082;5.108;2023-01-29T06:24:44;24.45;;;16.17;;
69912;SDS011;57198;52.082;5.108;2023-01-29T06:27:12;25.30;;;16.38;;
69912;SDS011;57198;52.082;5.108;2023-01-29T06:29:39;23.43;;;16.30;;
69912;SDS011;57198;52.082;5.108;2023-01-29T06:32:06;23.13;;;16.30;;
69912;SDS011;57198;52.082;5.108;2023-01-29T06:34:33;22.75;;;15.75;;
69912;SDS011;57198;52.082;5.108;2023-01-29T06:37:01;24.52;;;15.70;;
69912;SDS011;57198;52.082;5.108;2023-01-29T06:39:28;26.40;;;16.75;;
69912;SDS011;57198;52.082;5.108;2023-01-29T06:41:55;18.93;;;14.77;;
69912;SDS011;57198;52.082;5.108;2023-01-29T06:44:23;25.67;;;17.00;;
69912;SDS011;57198;52.082;5.108;2023-01-29T06:46:50;26.35;;;16.40;;
69912;SDS011;57198;52.082;5.108;2023-01-29T06:49:17;22.98;;;15.85;;
69912;SDS011;57198;52.082;5.108;2023-01-29T06:51:44;24.33;;;15.27;;
69912;SDS011;57198;52.082;5.108;2023-01-29T06:54:12;23.37;;;15.83;;
69912;SDS011;57198;52.082;5.108;2023-01-29T06:56:39;26.48;;;15.77;;
69912;SDS011;57198;52.082;5.108;2023-01-29T06:59:06;23.00;;;15.77;;
69912;SDS011;57198;52.082;5.108;2023-01-29T07:01:34;21.83;;;14.98;;
69912;SDS011;57198;52.082;5.108;2023-01-29T07:04:06;21.83;;;14.93;;
69912;SDS011;57198;52.082;5.108;2023-01-29T07:06:33;21.80;;;14.93;;
69912;SDS011;57198;52.082;5.108;2023-01-29T07:09:01;20.77;;;15.18;;
69912;SDS011;57198;52.082;5.108;2023-01-29T07:11:29;23.05;;;16.92;;
69912;SDS011;57198;52.082;5.108;2023-01-29T07:13:57;22.08;;;14.73;;
69912;SDS011;57198;52.082;5.108;2023-01-29T07:16:24;23.70;;;15.85;;
69912;SDS011;57198;52.082;5.108;2023-01-29T07:18:51;23.80;;;15.20;;
69912;SDS011;57198;52.082;5.108;2023-01-29T07:21:19;23.15;;;16.17;;
69912;SDS011;57198;52.082;5.108;2023-01-29T07:23:46;22.77;;;17.55;;
69912;SDS011;57198;52.082;5.108;2023-01-29T07:26:14;23.95;;;16.08;;
69912;SDS011;57198;52.082;5.108;2023-01-29T07:28:41;24.02;;;16.27;;
69912;SDS011;57198;52.082;5.108;2023-01-29T07:31:10;22.77;;;15.43;;
69912;SDS011;57198;52.082;5.108;2023-01-29T07:33:37;25.00;;;15.80;;
69912;SDS011;57198;52.082;5.108;2023-01-29T07:36:09;21.25;;;15.27;;
69912;SDS011;57198;52.082;5.108;2023-01-29T07:38:36;19.73;;;14.50;;
69912;SDS011;57198;52.082;5.108;2023-01-29T07:41:03;21.95;;;15.75;;
69912;SDS011;57198;52.082;5.108;2023-01-29T07:43:31;20.13;;;14.87;;
69912;SDS011;57198;52.082;5.108;2023-01-29T07:46:02;21.77;;;15.35;;
69912;SDS011;57198;52.082;5.108;2023-01-29T07:48:30;23.98;;;15.10;;
69912;SDS011;57198;52.082;5.108;2023-01-29T07:50:57;22.02;;;14.48;;
69912;SDS011;57198;52.082;5.108;2023-01-29T07:53:25;22.17;;;16.15;;
69912;SDS011;57198;52.082;5.108;2023-01-29T07:55:53;24.53;;;14.93;;
69912;SDS011;57198;52.082;5.108;2023-01-29T07:58:20;26.70;;;16.63;;
69912;SDS011;57198;52.082;5.108;2023-01-29T08:00:48;20.38;;;16.02;;
69912;SDS011;57198;52.082;5.108;2023-01-29T08:03:16;24.00;;;15.35;;
69912;SDS011;57198;52.082;5.108;2023-01-29T08:05:43;18.25;;;14.35;;
69912;SDS011;57198;52.082;5.108;2023-01-29T08:08:11;25.63;;;15.70;;
69912;SDS011;57198;52.082;5.108;2023-01-29T08:10:39;22.80;;;15.70;;
69912;SDS011;57198;52.082;5.108;2023-01-29T08:13:07;18.65;;;14.57;;
69912;SDS011;57198;52.082;5.108;2023-01-29T08:15:34;25.33;;;15.35;;
69912;SDS011;57198;52.082;5.108;2023-01-29T08:18:04;17.02;;;13.07;;
69912;SDS011;57198;52.082;5.108;2023-01-29T08:20:32;18.73;;;14.40;;
69912;SDS011;57198;52.082;5.108;2023-01-29T08:23:03;19.02;;;14.35;;
69912;SDS011;57198;52.082;5.108;2023-01-29T08:25:31;22.00;;;15.02;;
69912;SDS011;57198;52.082;5.108;2023-01-29T08:27:59;21.85;;;15.77;;
69912;SDS011;57198;52.082;5.108;2023-01-29T08:30:27;19.42;;;14.85;;
69912;SDS011;57198;52.082;5.108;2023-01-29T08:32:55;19.53;;;12.73;;
69912;SDS011;57198;52.082;5.108;2023-01-29T08:35:22;21.75;;;14.60;;
69912;SDS011;57198;52.082;5.108;2023-01-29T08:37:54;19.40;;;14.38;;
69912;SDS011;57198;52.082;5.108;2023-01-29T08:40:21;20.98;;;13.93;;
69912;SDS011;57198;52.082;5.108;2023-01-29T08:42:48;17.65;;;14.05;;
69912;SDS011;57198;52.082;5.108;2023-01-29T08:45:16;22.57;;;14.87;;
69912;SDS011;57198;52.082;5.108;2023-01-29T08:47:44;21.33;;;15.02;;
69912;SDS011;57198;52.082;5.108;2023-01-29T08:50:12;21.52;;;14.73;;
69912;SDS011;57198;52.082;5.108;2023-01-29T08:52:39;21.70;;;15.35;;
69912;SDS011;57198;52.082;5.108;2023-01-29T08:55:07;20.85;;;15.00;;
69912;SDS011;57198;52.082;5.108;2023-01-29T08:57:34;20.53;;;14.33;;
69912;SDS011;57198;52.082;5.108;2023-01-29T09:00:02;20.05;;;14.23;;
69912;SDS011;57198;52.082;5.108;2023-01-29T09:02:30;19.85;;;15.23;;
69912;SDS011;57198;52.082;5.108;2023-01-29T09:04:57;17.08;;;12.20;;
69912;SDS011;57198;52.082;5.108;2023-01-29T09:07:25;21.08;;;13.50;;
69912;SDS011;57198;52.082;5.108;2023-01-29T09:09:52;19.40;;;14.13;;
69912;SDS011;57198;52.082;5.108;2023-01-29T09:12:20;19.13;;;12.07;;
69912;SDS011;57198;52.082;5.108;2023-01-29T09:14:47;19.17;;;13.55;;
69912;SDS011;57198;52.082;5.108;2023-01-29T09:17:15;17.75;;;13.43;;
69912;SDS011;57198;52.082;5.108;2023-01-29T09:19:42;22.02;;;15.75;;
69912;SDS011;57198;52.082;5.108;2023-01-29T09:22:09;19.93;;;14.43;;
69912;SDS011;57198;52.082;5.108;2023-01-29T09:24:37;16.77;;;12.35;;
69912;SDS011;57198;52.082;5.108;2023-01-29T09:27:04;20.95;;;14.68;;
69912;SDS011;57198;52.082;5.108;2023-01-29T09:29:32;23.15;;;14.40;;
69912;SDS011;57198;52.082;5.108;2023-01-29T09:32:02;22.25;;;14.57;;
69912;SDS011;57198;52.082;5.108;2023-01-29T09:34:29;21.30;;;13.47;;
69912;SDS011;57198;52.082;5.108;2023-01-29T09:36:57;23.52;;;15.18;;
69912;SDS011;57198;52.082;5.108;2023-01-29T09:39:24;23.92;;;15.57;;
69912;SDS011;57198;52.082;5.108;2023-01-29T09:41:55;19.67;;;13.73;;
69912;SDS011;57198;52.082;5.108;2023-01-29T09:46:52;24.50;;;14.30;;
69912;SDS011;57198;52.082;5.108;2023-01-29T09:49:24;21.85;;;15.18;;
69912;SDS011;57198;52.082;5.108;2023-01-29T09:51:55;20.38;;;13.43;;
69912;SDS011;57198;52.082;5.108;2023-01-29T09:54:26;19.52;;;13.00;;
69912;SDS011;57198;52.082;5.108;2023-01-29T09:56:55;21.75;;;12.77;;
69912;SDS011;57198;52.082;5.108;2023-01-29T09:59:24;21.27;;;13.57;;
69912;SDS011;57198;52.082;5.108;2023-01-29T10:10:09;23.90;;;15.63;;
69912;SDS011;57198;52.082;5.108;2023-01-29T10:12:52;17.10;;;13.03;;
69912;SDS011;57198;52.082;5.108;2023-01-29T10:15:32;21.20;;;15.23;;
69912;SDS011;57198;52.082;5.108;2023-01-29T10:25:55;22.17;;;15.93;;
69912;SDS011;57198;52.082;5.108;2023-01-29T10:30:59;20.08;;;13.38;;
69912;SDS011;57198;52.082;5.108;2023-01-29T10:33:37;20.65;;;13.13;;
69912;SDS011;57198;52.082;5.108;2023-01-29T10:36:27;22.88;;;15.30;;
69912;SDS011;57198;52.082;5.108;2023-01-29T10:38:58;25.77;;;17.13;;
69912;SDS011;57198;52.082;5.108;2023-01-29T10:41:28;21.40;;;14.85;;
69912;SDS011;57198;52.082;5.108;2023-01-29T10:46:35;26.08;;;16.17;;
69912;SDS011;57198;52.082;5.108;2023-01-29T10:56:47;25.27;;;18.02;;
69912;SDS011;57198;52.082;5.108;2023-01-29T11:01:43;23.27;;;15.55;;
69912;SDS011;57198;52.082;5.108;2023-01-29T11:04:10;27.40;;;17.30;;
69912;SDS011;57198;52.082;5.108;2023-01-29T11:06:38;21.23;;;14.75;;
69912;SDS011;57198;52.082;5.108;2023-01-29T11:12:13;24.92;;;17.02;;
69912;SDS011;57198;52.082;5.108;2023-01-29T11:17:26;26.03;;;14.47;;
69912;SDS011;57198;52.082;5.108;2023-01-29T11:19:53;27.38;;;18.58;;
69912;SDS011;57198;52.082;5.108;2023-01-29T11:22:25;25.20;;;16.00;;
69912;SDS011;57198;52.082;5.108;2023-01-29T11:27:41;26.83;;;16.60;;
69912;SDS011;57198;52.082;5.108;2023-01-29T11:30:13;26.33;;;16.43;;
69912;SDS011;57198;52.082;5.108;2023-01-29T11:32:41;26.05;;;14.73;;
69912;SDS011;57198;52.082;5.108;2023-01-29T11:37:43;27.25;;;17.70;;
69912;SDS011;57198;52.082;5.108;2023-01-29T11:42:45;26.70;;;16.60;;
69912;SDS011;57198;52.082;5.108;2023-01-29T11:47:49;25.23;;;16.83;;
69912;SDS011;57198;52.082;5.108;2023-01-29T11:50:20;28.48;;;17.60;;
69912;SDS011;57198;52.082;5.108;2023-01-29T11:52:48;28.13;;;18.30;;
69912;SDS011;57198;52.082;5.108;2023-01-29T11:55:16;26.50;;;16.40;;
69912;SDS011;57198;52.082;5.108;2023-01-29T11:57:48;22.10;;;15.55;;
69912;SDS011;57198;52.082;5.108;2023-01-29T12:02:54;22.65;;;15.57;;
69912;SDS011;57198;52.082;5.108;2023-01-29T12:05:24;26.48;;;17.95;;
69912;SDS011;57198;52.082;5.108;2023-01-29T12:07:52;27.77;;;17.43;;
69912;SDS011;57198;52.082;5.108;2023-01-29T12:15:37;34.28;;;19.00;;
69912;SDS011;57198;52.082;5.108;2023-01-29T12:18:13;25.13;;;16.35;;
69912;SDS011;57198;52.082;5.108;2023-01-29T12:20:47;25.00;;;17.40;;
69912;SDS011;57198;52.082;5.108;2023-01-29T12:26:12;20.48;;;13.77;;
69912;SDS011;57198;52.082;5.108;2023-01-29T12:28:43;30.75;;;19.67;;
69912;SDS011;57198;52.082;5.108;2023-01-29T12:31:20;27.65;;;19.27;;
69912;SDS011;57198;52.082;5.108;2023-01-29T12:33:51;30.60;;;18.40;;
69912;SDS011;57198;52.082;5.108;2023-01-29T12:38:53;29.27;;;19.48;;
69912;SDS011;57198;52.082;5.108;2023-01-29T12:41:27;28.48;;;17.88;;
69912;SDS011;57198;52.082;5.108;2023-01-29T12:43:58;24.88;;;16.73;;
69912;SDS011;57198;52.082;5.108;2023-01-29T12:46:42;30.30;;;19.30;;
69912;SDS011;57198;52.082;5.108;2023-01-29T12:49:12;28.50;;;16.60;;
69912;SDS011;57198;52.082;5.108;2023-01-29T12:51:45;26.55;;;17.75;;
69912;SDS011;57198;52.082;5.108;2023-01-29T12:54:17;27.48;;;18.77;;
69912;SDS011;57198;52.082;5.108;2023-01-29T12:56:47;21.85;;;15.88;;
69912;SDS011;57198;52.082;5.108;2023-01-29T13:02:16;26.75;;;17.45;;
69912;SDS011;57198;52.082;5.108;2023-01-29T13:04:51;28.63;;;19.48;;
69912;SDS011;57198;52.082;5.108;2023-01-29T13:07:26;26.20;;;17.73;;
69912;SDS011;57198;52.082;5.108;2023-01-29T13:09:56;24.23;;;17.35;;
69912;SDS011;57198;52.082;5.108;2023-01-29T13:12:25;22.23;;;14.30;;
69912;SDS011;57198;52.082;5.108;2023-01-29T13:14:53;26.23;;;17.63;;
69912;SDS011;57198;52.082;5.108;2023-01-29T13:17:23;22.73;;;17.02;;
69912;SDS011;57198;52.082;5.108;2023-01-29T13:19:52;28.17;;;17.13;;
69912;SDS011;57198;52.082;5.108;2023-01-29T13:22:23;24.00;;;16.02;;
69912;SDS011;57198;52.082;5.108;2023-01-29T13:24:51;24.60;;;17.87;;
69912;SDS011;57198;52.082;5.108;2023-01-29T13:27:35;24.15;;;17.35;;
69912;SDS011;57198;52.082;5.108;2023-01-29T13:30:03;21.38;;;15.77;;
69912;SDS011;57198;52.082;5.108;2023-01-29T13:32:31;23.55;;;16.27;;
69912;SDS011;57198;52.082;5.108;2023-01-29T13:35:04;21.17;;;15.40;;
69912;SDS011;57198;52.082;5.108;2023-01-29T13:37:33;24.73;;;16.90;;
69912;SDS011;57198;52.082;5.108;2023-01-29T13:40:01;20.15;;;13.75;;
69912;SDS011;57198;52.082;5.108;2023-01-29T13:42:45;20.33;;;15.05;;
69912;SDS011;57198;52.082;5.108;2023-01-29T13:45:18;18.75;;;14.25;;
69912;SDS011;57198;52.082;5.108;2023-01-29T13:47:46;22.77;;;15.00;;
69912;SDS011;57198;52.082;5.108;2023-01-29T13:50:17;26.20;;;15.47;;
69912;SDS011;57198;52.082;5.108;2023-01-29T13:52:45;22.75;;;13.57;;
69912;SDS011;57198;52.082;5.108;2023-01-29T13:55:20;22.92;;;15.45;;
69912;SDS011;57198;52.082;5.108;2023-01-29T13:57:58;20.42;;;14.25;;
69912;SDS011;57198;52.082;5.108;2023-01-29T14:08:00;20.38;;;13.45;;
69912;SDS011;57198;52.082;5.108;2023-01-29T14:10:29;20.02;;;14.60;;
69912;SDS011;57198;52.082;5.108;2023-01-29T14:20:40;21.38;;;14.52;;
69912;SDS011;57198;52.082;5.108;2023-01-29T14:26:03;19.23;;;14.13;;
69912;SDS011;57198;52.082;5.108;2023-01-29T14:28:31;19.43;;;12.97;;
69912;SDS011;57198;52.082;5.108;2023-01-29T14:30:59;18.65;;;13.63;;
69912;SDS011;57198;52.082;5.108;2023-01-29T14:33:37;23.83;;;17.67;;
69912;SDS011;57198;52.082;5.108;2023-01-29T14:36:10;23.05;;;16.23;;
69912;SDS011;57198;52.082;5.108;2023-01-29T14:38:38;20.58;;;15.13;;
69912;SDS011;57198;52.082;5.108;2023-01-29T14:41:11;20.43;;;14.37;;
69912;SDS011;57198;52.082;5.108;2023-01-29T14:43:40;20.17;;;14.43;;
69912;SDS011;57198;52.082;5.108;2023-01-29T14:48:53;20.80;;;13.73;;
69912;SDS011;57198;52.082;5.108;2023-01-29T14:51:21;22.50;;;15.35;;
69912;SDS011;57198;52.082;5.108;2023-01-29T15:04:11;24.15;;;16.17;;
69912;SDS011;57198;52.082;5.108;2023-01-29T15:06:42;21.53;;;15.27;;
69912;SDS011;57198;52.082;5.108;2023-01-29T15:09:16;20.77;;;12.80;;
69912;SDS011;57198;52.082;5.108;2023-01-29T15:14:58;21.40;;;13.98;;
69912;SDS011;57198;52.082;5.108;2023-01-29T15:17:38;27.30;;;16.52;;
69912;SDS011;57198;52.082;5.108;2023-01-29T15:22:53;21.90;;;14.07;;
69912;SDS011;57198;52.082;5.108;2023-01-29T15:25:20;19.67;;;13.73;;
69912;SDS011;57198;52.082;5.108;2023-01-29T15:27:48;16.77;;;11.73;;
69912;SDS011;57198;52.082;5.108;2023-01-29T15:30:21;20.73;;;14.77;;
69912;SDS011;57198;52.082;5.108;2023-01-29T15:32:48;20.83;;;13.87;;
69912;SDS011;57198;52.082;5.108;2023-01-29T15:35:29;18.60;;;13.10;;
69912;SDS011;57198;52.082;5.108;2023-01-29T15:38:01;19.83;;;12.27;;
69912;SDS011;57198;52.082;5.108;2023-01-29T15:40:29;19.52;;;13.30;;
69912;SDS011;57198;52.082;5.108;2023-01-29T15:42:56;30.17;;;14.77;;
69912;SDS011;57198;52.082;5.108;2023-01-29T15:45:26;20.20;;;13.63;;
69912;SDS011;57198;52.082;5.108;2023-01-29T15:47:56;19.83;;;13.52;;
69912;SDS011;57198;52.082;5.108;2023-01-29T15:50:24;21.05;;;13.70;;
69912;SDS011;57198;52.082;5.108;2023-01-29T15:52:51;15.88;;;9.98;;
69912;SDS011;57198;52.082;5.108;2023-01-29T15:55:21;22.38;;;14.10;;
69912;SDS011;57198;52.082;5.108;2023-01-29T15:57:49;22.13;;;11.23;;
69912;SDS011;57198;52.082;5.108;2023-01-29T16:00:23;22.40;;;13.48;;
69912;SDS011;57198;52.082;5.108;2023-01-29T16:02:53;22.80;;;15.27;;
69912;SDS011;57198;52.082;5.108;2023-01-29T16:05:30;24.30;;;14.57;;
69912;SDS011;57198;52.082;5.108;2023-01-29T16:07:58;23.02;;;14.82;;
69912;SDS011;57198;52.082;5.108;2023-01-29T16:10:27;21.47;;;13.40;;
69912;SDS011;57198;52.082;5.108;2023-01-29T16:12:54;19.98;;;12.18;;
69912;SDS011;57198;52.082;5.108;2023-01-29T16:17:59;24.35;;;15.65;;
69912;SDS011;57198;52.082;5.108;2023-01-29T16:22:57;17.33;;;12.60;;
69912;SDS011;57198;52.082;5.108;2023-01-29T16:25:24;17.88;;;12.15;;
69912;SDS011;57198;52.082;5.108;2023-01-29T16:27:51;19.02;;;12.52;;
69912;SDS011;57198;52.082;5.108;2023-01-29T16:30:19;22.63;;;14.88;;
69912;SDS011;57198;52.082;5.108;2023-01-29T16:32:51;17.05;;;12.55;;
69912;SDS011;57198;52.082;5.108;2023-01-29T16:35:19;19.37;;;12.83;;
69912;SDS011;57198;52.082;5.108;2023-01-29T16:37:46;17.10;;;11.90;;
69912;SDS011;57198;52.082;5.108;2023-01-29T16:40:20;22.08;;;14.48;;
69912;SDS011;57198;52.082;5.108;2023-01-29T16:43:05;21.77;;;13.23;;
69912;SDS011;57198;52.082;5.108;2023-01-29T16:46:14;21.08;;;13.63;;
69912;SDS011;57198;52.082;5.108;2023-01-29T16:48:43;21.80;;;12.50;;
69912;SDS011;57198;52.082;5.108;2023-01-29T16:51:12;22.27;;;13.73;;
69912;SDS011;57198;52.082;5.108;2023-01-29T16:53:47;24.30;;;16.25;;
69912;SDS011;57198;52.082;5.108;2023-01-29T16:56:18;24.05;;;15.05;;
69912;SDS011;57198;52.082;5.108;2023-01-29T16:58:49;27.58;;;17.15;;
69912;SDS011;57198;52.082;5.108;2023-01-29T17:01:16;25.03;;;14.63;;
69912;SDS011;57198;52.082;5.108;2023-01-29T17:03:44;24.08;;;14.77;;
69912;SDS011;57198;52.082;5.108;2023-01-29T17:06:26;26.63;;;16.75;;
69912;SDS011;57198;52.082;5.108;2023-01-29T17:08:53;25.95;;;15.45;;
69912;SDS011;57198;52.082;5.108;2023-01-29T17:11:32;27.20;;;17.05;;
69912;SDS011;57198;52.082;5.108;2023-01-29T17:13:59;29.13;;;15.20;;
69912;SDS011;57198;52.082;5.108;2023-01-29T17:16:28;25.50;;;16.08;;